Scroll down
FLIGHT INFORMATION
American Airlines

AAL254

At Arrival Gate

PHOG
 KLAX
DATE: 2020-12-12
GATE: G16
GATE DEPARTURE: 15:37
TAKEOFF: 15:49
DATE: 2020-12-12
GATE: 41
LANDING: 20:27
GATE ARRIVAL: 20:36
FLIGHT DATA
Crew: 
Speed: 
502 kts
Altitude: 
35,026 ft
Stage Length: 
2,157.3 nm
Block Time: 
5 hrs
Flight Time: 
4.6 hrs
Fuel Used: 
79,625 lb
Cleared Route: PHOG CLUTS CEBEN CIVIT FLEXX GITLE GALIP AUDIA SNAXX SERCO HUULL GNZZO RYDRR KEVVI BAYST JUUSE CLIFY DAHJR GADDO HUNDA RW25L
TRACK DATA
50,000 ft 1,000 kts
AIRCRAFT INFO AND CUMULATIVE STATS
Aircraft Type: 
B77W
Registration: 
SELCAL: 
CPDJ
MSN/LN: 
31549 / 1257
Operator: 
Total Flights: 
6
Total Block Time: 
48.7 hrs
Total Flight Time: 
46.6 hrs
Total Fuel Used: 
842,296 lb
DATALINK LOG | Newest first | Current as of: 2021-11-30 21:29:29
LABEL SEQUENCE CONTENT Dn/Up
QD264720:36 14.3▼ Dn
QC163920:27▼ Dn
5Z562312 DEC 20 20:07:33z / FLT DECK GOOD / ACF POS GOOD / GRND SERVICES GOOD / MAINT GOOD▼ Dn
GA5633GATE 41▲ Up
GR5622KLAX 20:22 MAAS 00 YP/UM 01/02 WCHR/S/C 03/04/05 HI-VAL NO DIPL/VIP YES▼ Dn
UM2124924KLAX ATIS - LAX ATIS INFO Q 2353Z. 19006KT 10SM FEW029 16/09 A3002 (THREE ZERO ZERO TWO) RMK AO2 SLP164 10178 20150 53000. SIMUL INST APCHS IN PROG TO RWYS 24R AND 25L, AND SIMUL APCHS IN PROG BTWN LAX AND HHR, SIMUL INSTR DEPARTURES IN PROG RWYS 24 AND 25. NOTAMS... TWY B CLSD BTN TWY, N AND TWY Q TWY D CLSD BTN TWY N AND TWY L TWY E12 CLSD. PAPI OTS 24L, 24R. CONTACT CLEARANCE DELIVERY ON 121.65. BIRD ACTIVITY VICINITY ARPT. HAZD WX INFO FOR LAX AREA AVBL FM FSS. INCLUDE YOUR CALL SIGN IN ALL REED BACKS. ...ADVS YOU HAVE INFO Q.▲ Up
DM794914 ATIS KLAX A▼ Dn
DM794612 ATIS KLA A▼ Dn
UM2124118KLAX ATIS - LAX ATIS INFO Q 2353Z. 19006KT 10SM FEW029 16/09 A3002 (THREE ZERO ZERO TWO) RMK AO2 SLP164 10178 20150 53000. SIMUL INST APCHS IN PROG TO RWYS 24R AND 25L, AND SIMUL APCHS IN PROG BTWN LAX AND HHR, SIMUL INSTR DEPARTURES IN PROG RWYS 24 AND 25. NOTAMS... TWY B CLSD BTN TWY, N AND TWY Q TWY D CLSD BTN TWY N AND TWY L TWY E12 CLSD. PAPI OTS 24L, 24R. CONTACT CLEARANCE DELIVERY ON 121.65. BIRD ACTIVITY VICINITY ARPT. HAZD WX INFO FOR LAX AREA AVBL FM FSS. INCLUDE YOUR CALL SIGN IN ALL REED BACKS. ...ADVS YOU HAVE INFO Q.▲ Up
DM794108 ATIS KLAX A▼ Dn
2U5145KLAX 122153Z 25010KT 10SM FEW025 SCT250 17/09 A2999 RMK AO2 SLP154 T01670089▲ Up
2S3906KLAX▼ Dn
2U2208KLAX 122053Z 26007KT 10SM SCT025 SCT250 17/09 A3000 RMK AO2 SLP157 T01670089 58026▲ Up
2S1038KLAX▼ Dn
QB494015:49▼ Dn
QA382915:37 93.9▼ Dn
2U3235PHOG 121454Z AUTO 04015KT 10SM CLR 24/19 A3005 RMK AO2 SLP179 T02390189 56012 TSNO $▲ Up
2S3223PHOG▼ Dn
A32425CLEARED TO KLAX VIA CLUTS R465 CIVIT R585 FLEXX R585 AUDIA SNAXX RYDRR2. SQUAWK 5540.▲ Up
B32415PHOG KLAX AAL254 N732AN O ▼ Dn
5U2119KLAX 121922Z 26008KT 10SM BKN050 09/08 A3007▲ Up
2U2116PHOG 121454Z AUTO 04015KT 10SM CLR 24/19 A3005 RMK AO2 SLP179 T02390189 56012 TSNO $▲ Up
5S2214KLAX▼ Dn
2S2213PHOG▼ Dn
Q02012[LINK ACK]▲ Up
Q02011[LINK TEST]▼ Dn


AIRCRAFT HISTORY
FLIGHT DATE FLIGHT NO. ORIGIN DESTINATION CLEARED ROUTE BLOCK TIME FLIGHT TIME FUEL USED PILOT
2021-09-26AAL926KDFW RKSI KDFW SPERA JGIRL CORTS BIGGD CMORE BLECO ZEMMA ICT LNK FAR HML ZOMTA YWG 55N00 61N10 64N20 67N30 ADREW LISKI BABAD PEMID GONAM ABILA RULOD ADALU OSKON GUBAD TINID IDNOR RIPTA BANOT RELDI DIREB SOPIN NILOT GITAK GIRUD LUSAK KUNON LUPAT OBUTA IBOLI OLGIR SUKOP LAPNI BESPA OGNIT PENOK ODEKA MAGIT JMU IGADO HRB PABKI PAGDO ISBOP NULRA LJB LEMOT NUBKI BIDIB ISKEM TOSID NODAL CHI SANKO OBDIS DONVO AGAVO RILRO GONAV BODOL REBIT COWAY PINGO CW001 CW002 CW003 CW004 CW005 PAMBI RW34R14.3 hrs13.9 hrs270,304 lbRandall Smith
2021-03-24AAL8439RJAA KDFW RJAA GULBO TASID NOLAX IDLAN ADNAP ADGOR AGEDI PASRO POWAL PLADO PINSO PINTT PTZGR CHUUK ODK CJAYY GRIZZ HMPTN KATCH FINGS YAZNB CFPXC TOU OLM SUMMA WANTA JELTI HOVEL VELUY BYI PIMIE NAGNE BONGO PITMN TAYLR GOSIP KENTO PNH TURKI KDFW11.2 hrs10.8 hrs187,718 lbRyan Syferd
2020-12-13AAL2822KORD RJAA KORD PMPKN NEATO DLLAN RONIC BAE BGOSH DLH 5096N 52N00 53N10 ELKIE 55N30 57N40 59N50 60N60 NOLTI NAYLD NULUK ONEIL OPAKE OLCOT OPHET OGDEN OMOTO OPULO ONEMU OATIS VESET UGTAN NOGIX OLDIV LESPO SUPOK SOFIA AA458 AA459 AA460 AA461 BELKS PEAKS TYLER GIINA RW34L12.5 hrs12.2 hrs215,578 lbGeorge
2020-12-13AAL1163KLAX KORD KLAX HIIPR ADORE SHAEF PEVEE HOLTZ DOTSS EYEDL HOMER CLEEE PKE LANCY DRK KEYKE GUP CIM LBL VARNR ICT ROKNE DOSOA BUM SCAWT ELSTO WELTS MCDEE CASHN VINCA MAROC TRICH TRTLL HIHRY RINNO JORJO MONKZ TONIE HAZIL RW28C3.5 hrs3.1 hrs57,076 lbGeorge
2020-12-12AAL254PHOG KLAX PHOG CLUTS CEBEN CIVIT FLEXX GITLE GALIP AUDIA SNAXX SERCO HUULL GNZZO RYDRR KEVVI BAYST JUUSE CLIFY DAHJR GADDO HUNDA RW25L5 hrs4.6 hrs79,625 lbGeorge
2020-12-05AAL520KDFW KPHX 2.2 hrs1.9 hrs31,994 lbGeorge